sensor_id;sensor_type;location;lat;lon;timestamp;P1;durP1;ratioP1;P2;durP2;ratioP2
35699;SDS011;21818;51.078;12.108;2023-04-08T00:00:00;2.33;;;1.77;;
35699;SDS011;21818;51.078;12.108;2023-04-08T00:02:26;3.28;;;1.73;;
35699;SDS011;21818;51.078;12.108;2023-04-08T00:04:52;2.65;;;2.35;;
35699;SDS011;21818;51.078;12.108;2023-04-08T00:07:18;2.78;;;1.92;;
35699;SDS011;21818;51.078;12.108;2023-04-08T00:09:43;2.60;;;1.80;;
35699;SDS011;21818;51.078;12.108;2023-04-08T00:12:09;2.58;;;1.67;;
35699;SDS011;21818;51.078;12.108;2023-04-08T00:14:34;2.05;;;1.60;;
35699;SDS011;21818;51.078;12.108;2023-04-08T00:17:02;3.75;;;1.73;;
35699;SDS011;21818;51.078;12.108;2023-04-08T00:19:27;2.45;;;1.70;;
35699;SDS011;21818;51.078;12.108;2023-04-08T00:21:53;2.35;;;1.90;;
35699;SDS011;21818;51.078;12.108;2023-04-08T00:24:18;2.25;;;1.58;;
35699;SDS011;21818;51.078;12.108;2023-04-08T00:26:44;3.25;;;2.42;;
35699;SDS011;21818;51.078;12.108;2023-04-08T00:29:10;2.13;;;1.70;;
35699;SDS011;21818;51.078;12.108;2023-04-08T00:31:35;2.53;;;1.80;;
35699;SDS011;21818;51.078;12.108;2023-04-08T00:34:01;3.75;;;1.83;;
35699;SDS011;21818;51.078;12.108;2023-04-08T00:36:26;3.50;;;2.00;;
35699;SDS011;21818;51.078;12.108;2023-04-08T00:38:52;2.22;;;1.48;;
35699;SDS011;21818;51.078;12.108;2023-04-08T00:41:17;2.72;;;2.28;;
35699;SDS011;21818;51.078;12.108;2023-04-08T00:43:43;3.50;;;1.92;;
35699;SDS011;21818;51.078;12.108;2023-04-08T00:46:09;3.00;;;1.92;;
35699;SDS011;21818;51.078;12.108;2023-04-08T00:48:35;2.30;;;1.75;;
35699;SDS011;21818;51.078;12.108;2023-04-08T00:51:00;1.92;;;1.67;;
35699;SDS011;21818;51.078;12.108;2023-04-08T00:53:27;2.80;;;1.75;;
35699;SDS011;21818;51.078;12.108;2023-04-08T00:55:55;2.53;;;2.00;;
35699;SDS011;21818;51.078;12.108;2023-04-08T00:58:21;3.22;;;2.05;;
35699;SDS011;21818;51.078;12.108;2023-04-08T01:00:49;3.00;;;2.13;;
35699;SDS011;21818;51.078;12.108;2023-04-08T01:08:51;2.72;;;1.90;;
35699;SDS011;21818;51.078;12.108;2023-04-08T01:11:18;2.35;;;1.98;;
35699;SDS011;21818;51.078;12.108;2023-04-08T01:13:45;3.08;;;2.20;;
35699;SDS011;21818;51.078;12.108;2023-04-08T01:16:14;2.33;;;1.80;;
35699;SDS011;21818;51.078;12.108;2023-04-08T01:18:42;4.90;;;1.73;;
35699;SDS011;21818;51.078;12.108;2023-04-08T01:21:08;1.88;;;1.30;;
35699;SDS011;21818;51.078;12.108;2023-04-08T01:23:52;2.45;;;1.50;;
35699;SDS011;21818;51.078;12.108;2023-04-08T01:26:26;2.15;;;1.48;;
35699;SDS011;21818;51.078;12.108;2023-04-08T01:28:52;2.40;;;1.60;;
35699;SDS011;21818;51.078;12.108;2023-04-08T01:31:21;3.42;;;1.77;;
35699;SDS011;21818;51.078;12.108;2023-04-08T01:33:48;2.55;;;1.88;;
35699;SDS011;21818;51.078;12.108;2023-04-08T01:36:15;3.38;;;1.92;;
35699;SDS011;21818;51.078;12.108;2023-04-08T01:38:42;2.95;;;1.90;;
35699;SDS011;21818;51.078;12.108;2023-04-08T01:41:10;1.77;;;1.35;;
35699;SDS011;21818;51.078;12.108;2023-04-08T01:43:37;1.80;;;1.30;;
35699;SDS011;21818;51.078;12.108;2023-04-08T01:46:05;2.03;;;1.52;;
35699;SDS011;21818;51.078;12.108;2023-04-08T01:48:32;2.58;;;1.55;;
35699;SDS011;21818;51.078;12.108;2023-04-08T01:50:59;2.65;;;1.70;;
35699;SDS011;21818;51.078;12.108;2023-04-08T01:53:26;2.03;;;1.58;;
35699;SDS011;21818;51.078;12.108;2023-04-08T01:55:54;2.85;;;1.98;;
35699;SDS011;21818;51.078;12.108;2023-04-08T01:58:24;2.92;;;1.60;;
35699;SDS011;21818;51.078;12.108;2023-04-08T02:00:53;1.58;;;1.38;;
35699;SDS011;21818;51.078;12.108;2023-04-08T02:03:21;2.25;;;1.42;;
35699;SDS011;21818;51.078;12.108;2023-04-08T02:05:49;2.40;;;1.73;;
35699;SDS011;21818;51.078;12.108;2023-04-08T02:08:15;3.63;;;1.67;;
35699;SDS011;21818;51.078;12.108;2023-04-08T02:10:40;2.70;;;1.70;;
35699;SDS011;21818;51.078;12.108;2023-04-08T02:13:06;2.58;;;1.75;;
35699;SDS011;21818;51.078;12.108;2023-04-08T02:15:33;3.53;;;1.92;;
35699;SDS011;21818;51.078;12.108;2023-04-08T02:18:14;2.42;;;1.70;;
35699;SDS011;21818;51.078;12.108;2023-04-08T02:20:46;2.45;;;1.63;;
35699;SDS011;21818;51.078;12.108;2023-04-08T02:23:21;1.92;;;1.52;;
35699;SDS011;21818;51.078;12.108;2023-04-08T02:25:49;2.92;;;1.85;;
35699;SDS011;21818;51.078;12.108;2023-04-08T02:28:17;2.42;;;1.50;;
35699;SDS011;21818;51.078;12.108;2023-04-08T02:30:50;2.50;;;1.45;;
35699;SDS011;21818;51.078;12.108;2023-04-08T02:33:17;2.10;;;1.42;;
35699;SDS011;21818;51.078;12.108;2023-04-08T02:35:44;2.47;;;1.70;;
35699;SDS011;21818;51.078;12.108;2023-04-08T02:38:12;1.88;;;1.50;;
35699;SDS011;21818;51.078;12.108;2023-04-08T02:40:38;1.95;;;1.45;;
35699;SDS011;21818;51.078;12.108;2023-04-08T02:43:03;2.67;;;1.73;;
35699;SDS011;21818;51.078;12.108;2023-04-08T02:45:30;2.03;;;1.50;;
35699;SDS011;21818;51.078;12.108;2023-04-08T02:47:58;2.17;;;1.77;;
35699;SDS011;21818;51.078;12.108;2023-04-08T02:50:24;1.60;;;1.17;;
35699;SDS011;21818;51.078;12.108;2023-04-08T02:52:50;1.73;;;1.50;;
35699;SDS011;21818;51.078;12.108;2023-04-08T02:55:15;2.20;;;1.73;;
35699;SDS011;21818;51.078;12.108;2023-04-08T02:57:41;2.85;;;1.88;;
35699;SDS011;21818;51.078;12.108;2023-04-08T03:00:07;2.40;;;1.55;;
35699;SDS011;21818;51.078;12.108;2023-04-08T03:02:33;1.58;;;1.20;;
35699;SDS011;21818;51.078;12.108;2023-04-08T03:04:59;2.38;;;1.30;;
35699;SDS011;21818;51.078;12.108;2023-04-08T03:07:24;2.50;;;1.45;;
35699;SDS011;21818;51.078;12.108;2023-04-08T03:09:50;1.73;;;1.42;;
35699;SDS011;21818;51.078;12.108;2023-04-08T03:12:16;1.80;;;1.60;;
35699;SDS011;21818;51.078;12.108;2023-04-08T03:14:41;2.45;;;1.40;;
35699;SDS011;21818;51.078;12.108;2023-04-08T03:17:07;1.90;;;1.30;;
35699;SDS011;21818;51.078;12.108;2023-04-08T03:19:36;2.92;;;1.95;;
35699;SDS011;21818;51.078;12.108;2023-04-08T03:22:18;3.30;;;1.90;;
35699;SDS011;21818;51.078;12.108;2023-04-08T03:24:45;2.92;;;1.48;;
35699;SDS011;21818;51.078;12.108;2023-04-08T03:27:10;4.15;;;2.22;;
35699;SDS011;21818;51.078;12.108;2023-04-08T03:29:36;4.13;;;2.22;;
35699;SDS011;21818;51.078;12.108;2023-04-08T03:32:02;3.40;;;2.13;;
35699;SDS011;21818;51.078;12.108;2023-04-08T03:34:28;3.42;;;1.95;;
35699;SDS011;21818;51.078;12.108;2023-04-08T03:36:53;3.22;;;2.00;;
35699;SDS011;21818;51.078;12.108;2023-04-08T03:39:19;3.03;;;1.83;;
35699;SDS011;21818;51.078;12.108;2023-04-08T03:41:44;3.42;;;2.20;;
35699;SDS011;21818;51.078;12.108;2023-04-08T03:44:10;4.07;;;2.80;;
35699;SDS011;21818;51.078;12.108;2023-04-08T03:46:35;3.72;;;2.72;;
35699;SDS011;21818;51.078;12.108;2023-04-08T03:49:01;5.60;;;3.17;;
35699;SDS011;21818;51.078;12.108;2023-04-08T03:51:26;4.25;;;2.95;;
35699;SDS011;21818;51.078;12.108;2023-04-08T03:53:52;3.45;;;2.65;;
35699;SDS011;21818;51.078;12.108;2023-04-08T03:56:18;3.88;;;2.53;;
35699;SDS011;21818;51.078;12.108;2023-04-08T03:58:43;4.40;;;2.80;;
35699;SDS011;21818;51.078;12.108;2023-04-08T04:01:09;4.07;;;2.88;;
35699;SDS011;21818;51.078;12.108;2023-04-08T04:03:34;4.68;;;2.42;;
35699;SDS011;21818;51.078;12.108;2023-04-08T04:06:00;4.50;;;2.50;;
35699;SDS011;21818;51.078;12.108;2023-04-08T04:08:26;2.75;;;2.17;;
35699;SDS011;21818;51.078;12.108;2023-04-08T04:10:51;4.53;;;2.50;;
35699;SDS011;21818;51.078;12.108;2023-04-08T04:13:17;2.90;;;2.03;;
35699;SDS011;21818;51.078;12.108;2023-04-08T04:15:43;4.18;;;2.20;;
35699;SDS011;21818;51.078;12.108;2023-04-08T04:18:09;2.83;;;2.30;;
35699;SDS011;21818;51.078;12.108;2023-04-08T04:20:34;3.92;;;2.30;;
35699;SDS011;21818;51.078;12.108;2023-04-08T04:23:03;2.85;;;2.10;;
35699;SDS011;21818;51.078;12.108;2023-04-08T04:25:29;3.92;;;2.50;;
35699;SDS011;21818;51.078;12.108;2023-04-08T04:27:54;3.88;;;2.17;;
35699;SDS011;21818;51.078;12.108;2023-04-08T04:30:20;3.53;;;1.92;;
35699;SDS011;21818;51.078;12.108;2023-04-08T04:32:45;3.33;;;1.77;;
35699;SDS011;21818;51.078;12.108;2023-04-08T04:35:11;3.20;;;2.20;;
35699;SDS011;21818;51.078;12.108;2023-04-08T04:37:37;2.83;;;2.15;;
35699;SDS011;21818;51.078;12.108;2023-04-08T04:40:03;3.03;;;2.10;;
35699;SDS011;21818;51.078;12.108;2023-04-08T04:42:29;3.40;;;1.90;;
35699;SDS011;21818;51.078;12.108;2023-04-08T04:44:55;2.47;;;1.80;;
35699;SDS011;21818;51.078;12.108;2023-04-08T04:47:21;2.42;;;1.70;;
35699;SDS011;21818;51.078;12.108;2023-04-08T04:49:47;3.65;;;1.95;;
35699;SDS011;21818;51.078;12.108;2023-04-08T04:52:12;2.80;;;1.52;;
35699;SDS011;21818;51.078;12.108;2023-04-08T04:54:38;3.70;;;1.40;;
35699;SDS011;21818;51.078;12.108;2023-04-08T04:57:03;2.67;;;1.70;;
35699;SDS011;21818;51.078;12.108;2023-04-08T04:59:29;3.33;;;1.70;;
35699;SDS011;21818;51.078;12.108;2023-04-08T05:01:55;1.90;;;1.30;;
35699;SDS011;21818;51.078;12.108;2023-04-08T05:04:24;2.70;;;1.58;;
35699;SDS011;21818;51.078;12.108;2023-04-08T05:06:50;2.13;;;1.20;;
35699;SDS011;21818;51.078;12.108;2023-04-08T05:09:15;2.25;;;1.35;;
35699;SDS011;21818;51.078;12.108;2023-04-08T05:11:41;2.20;;;1.58;;
35699;SDS011;21818;51.078;12.108;2023-04-08T05:14:07;2.45;;;1.48;;
35699;SDS011;21818;51.078;12.108;2023-04-08T05:16:32;1.90;;;1.40;;
35699;SDS011;21818;51.078;12.108;2023-04-08T05:18:59;1.98;;;1.35;;
35699;SDS011;21818;51.078;12.108;2023-04-08T05:21:24;3.78;;;1.98;;
35699;SDS011;21818;51.078;12.108;2023-04-08T05:23:51;1.88;;;1.10;;
35699;SDS011;21818;51.078;12.108;2023-04-08T05:26:21;5.82;;;1.23;;
35699;SDS011;21818;51.078;12.108;2023-04-08T05:28:49;3.50;;;1.25;;
35699;SDS011;21818;51.078;12.108;2023-04-08T05:31:16;2.80;;;0.98;;
35699;SDS011;21818;51.078;12.108;2023-04-08T05:33:42;3.72;;;1.00;;
35699;SDS011;21818;51.078;12.108;2023-04-08T05:36:09;3.53;;;1.13;;
35699;SDS011;21818;51.078;12.108;2023-04-08T05:38:35;2.95;;;1.25;;
35699;SDS011;21818;51.078;12.108;2023-04-08T05:41:01;2.00;;;1.00;;
35699;SDS011;21818;51.078;12.108;2023-04-08T05:43:26;3.40;;;1.10;;
35699;SDS011;21818;51.078;12.108;2023-04-08T05:45:52;3.97;;;1.00;;
35699;SDS011;21818;51.078;12.108;2023-04-08T05:48:17;1.23;;;0.70;;
35699;SDS011;21818;51.078;12.108;2023-04-08T05:50:43;3.00;;;0.73;;
35699;SDS011;21818;51.078;12.108;2023-04-08T05:53:09;3.97;;;1.00;;
35699;SDS011;21818;51.078;12.108;2023-04-08T05:55:35;6.13;;;1.00;;
35699;SDS011;21818;51.078;12.108;2023-04-08T05:58:00;4.28;;;1.60;;
35699;SDS011;21818;51.078;12.108;2023-04-08T06:00:26;2.65;;;0.98;;
35699;SDS011;21818;51.078;12.108;2023-04-08T06:02:51;2.50;;;0.90;;
35699;SDS011;21818;51.078;12.108;2023-04-08T06:05:17;1.95;;;0.93;;
35699;SDS011;21818;51.078;12.108;2023-04-08T06:07:43;1.65;;;0.70;;
35699;SDS011;21818;51.078;12.108;2023-04-08T06:10:09;4.93;;;1.10;;
35699;SDS011;21818;51.078;12.108;2023-04-08T06:12:35;1.20;;;0.75;;
35699;SDS011;21818;51.078;12.108;2023-04-08T06:15:02;4.18;;;0.70;;
35699;SDS011;21818;51.078;12.108;2023-04-08T06:17:28;0.75;;;0.55;;
35699;SDS011;21818;51.078;12.108;2023-04-08T06:19:54;1.98;;;0.80;;
35699;SDS011;21818;51.078;12.108;2023-04-08T06:22:20;1.27;;;0.50;;
35699;SDS011;21818;51.078;12.108;2023-04-08T06:24:46;3.78;;;0.75;;
35699;SDS011;21818;51.078;12.108;2023-04-08T06:27:12;2.33;;;0.77;;
35699;SDS011;21818;51.078;12.108;2023-04-08T06:29:38;2.65;;;1.38;;
35699;SDS011;21818;51.078;12.108;2023-04-08T06:32:03;1.80;;;0.60;;
35699;SDS011;21818;51.078;12.108;2023-04-08T06:34:30;1.92;;;0.50;;
35699;SDS011;21818;51.078;12.108;2023-04-08T06:36:55;2.95;;;0.70;;
35699;SDS011;21818;51.078;12.108;2023-04-08T06:39:21;1.75;;;0.57;;
35699;SDS011;21818;51.078;12.108;2023-04-08T06:41:47;2.05;;;0.85;;
35699;SDS011;21818;51.078;12.108;2023-04-08T06:44:12;1.55;;;0.65;;
35699;SDS011;21818;51.078;12.108;2023-04-08T06:46:38;1.30;;;0.73;;
35699;SDS011;21818;51.078;12.108;2023-04-08T06:49:03;1.63;;;0.70;;
35699;SDS011;21818;51.078;12.108;2023-04-08T06:51:30;2.55;;;0.73;;
35699;SDS011;21818;51.078;12.108;2023-04-08T06:53:56;1.23;;;0.60;;
35699;SDS011;21818;51.078;12.108;2023-04-08T06:56:22;1.67;;;0.80;;
35699;SDS011;21818;51.078;12.108;2023-04-08T06:58:50;10.50;;;1.55;;
35699;SDS011;21818;51.078;12.108;2023-04-08T07:01:16;1.90;;;0.50;;
35699;SDS011;21818;51.078;12.108;2023-04-08T07:03:41;1.02;;;0.40;;
35699;SDS011;21818;51.078;12.108;2023-04-08T07:06:07;2.25;;;0.77;;
35699;SDS011;21818;51.078;12.108;2023-04-08T07:08:33;2.85;;;1.13;;
35699;SDS011;21818;51.078;12.108;2023-04-08T07:10:58;2.58;;;0.93;;
35699;SDS011;21818;51.078;12.108;2023-04-08T07:13:24;1.58;;;0.75;;
35699;SDS011;21818;51.078;12.108;2023-04-08T07:15:50;1.23;;;0.80;;
35699;SDS011;21818;51.078;12.108;2023-04-08T07:18:16;1.48;;;0.47;;
35699;SDS011;21818;51.078;12.108;2023-04-08T07:20:41;2.10;;;0.50;;
35699;SDS011;21818;51.078;12.108;2023-04-08T07:23:08;1.20;;;0.52;;
35699;SDS011;21818;51.078;12.108;2023-04-08T07:25:33;3.17;;;0.75;;
35699;SDS011;21818;51.078;12.108;2023-04-08T07:27:59;4.72;;;0.57;;
35699;SDS011;21818;51.078;12.108;2023-04-08T07:30:25;0.80;;;0.40;;
35699;SDS011;21818;51.078;12.108;2023-04-08T07:32:50;1.13;;;0.80;;
35699;SDS011;21818;51.078;12.108;2023-04-08T07:35:19;1.67;;;0.75;;
35699;SDS011;21818;51.078;12.108;2023-04-08T07:37:48;3.67;;;0.73;;
35699;SDS011;21818;51.078;12.108;2023-04-08T07:40:14;1.38;;;0.70;;
35699;SDS011;21818;51.078;12.108;2023-04-08T07:42:40;1.02;;;0.47;;
35699;SDS011;21818;51.078;12.108;2023-04-08T07:45:06;1.40;;;0.63;;
35699;SDS011;21818;51.078;12.108;2023-04-08T07:47:32;3.30;;;0.70;;
35699;SDS011;21818;51.078;12.108;2023-04-08T07:49:57;1.27;;;0.70;;
35699;SDS011;21818;51.078;12.108;2023-04-08T07:52:23;2.28;;;0.80;;
35699;SDS011;21818;51.078;12.108;2023-04-08T07:54:49;1.75;;;0.68;;
35699;SDS011;21818;51.078;12.108;2023-04-08T07:57:14;1.02;;;0.60;;
35699;SDS011;21818;51.078;12.108;2023-04-08T07:59:40;1.65;;;0.80;;
35699;SDS011;21818;51.078;12.108;2023-04-08T08:02:06;1.42;;;0.70;;
35699;SDS011;21818;51.078;12.108;2023-04-08T08:04:31;1.35;;;0.82;;
35699;SDS011;21818;51.078;12.108;2023-04-08T08:06:57;2.60;;;0.63;;
35699;SDS011;21818;51.078;12.108;2023-04-08T08:09:22;3.58;;;0.70;;
35699;SDS011;21818;51.078;12.108;2023-04-08T08:11:48;1.88;;;0.75;;
35699;SDS011;21818;51.078;12.108;2023-04-08T08:14:13;1.08;;;0.50;;
35699;SDS011;21818;51.078;12.108;2023-04-08T08:16:39;2.83;;;0.60;;
35699;SDS011;21818;51.078;12.108;2023-04-08T08:19:05;3.05;;;1.13;;
35699;SDS011;21818;51.078;12.108;2023-04-08T08:21:34;2.13;;;0.50;;
35699;SDS011;21818;51.078;12.108;2023-04-08T08:24:00;3.72;;;0.80;;
35699;SDS011;21818;51.078;12.108;2023-04-08T08:26:26;2.53;;;0.85;;
35699;SDS011;21818;51.078;12.108;2023-04-08T08:28:52;0.75;;;0.50;;
35699;SDS011;21818;51.078;12.108;2023-04-08T08:31:18;1.70;;;0.60;;
35699;SDS011;21818;51.078;12.108;2023-04-08T08:33:43;3.10;;;0.60;;
35699;SDS011;21818;51.078;12.108;2023-04-08T08:36:10;1.30;;;0.50;;
35699;SDS011;21818;51.078;12.108;2023-04-08T08:38:36;1.35;;;0.47;;
35699;SDS011;21818;51.078;12.108;2023-04-08T08:41:02;1.90;;;0.90;;
35699;SDS011;21818;51.078;12.108;2023-04-08T08:43:28;1.92;;;1.13;;
35699;SDS011;21818;51.078;12.108;2023-04-08T08:45:57;1.85;;;1.20;;
35699;SDS011;21818;51.078;12.108;2023-04-08T08:48:23;2.70;;;1.67;;
35699;SDS011;21818;51.078;12.108;2023-04-08T08:50:49;2.20;;;0.80;;
35699;SDS011;21818;51.078;12.108;2023-04-08T08:53:15;1.65;;;0.90;;
35699;SDS011;21818;51.078;12.108;2023-04-08T08:55:41;1.45;;;0.57;;
35699;SDS011;21818;51.078;12.108;2023-04-08T08:58:07;1.17;;;0.65;;
35699;SDS011;21818;51.078;12.108;2023-04-08T09:00:33;1.02;;;0.70;;
35699;SDS011;21818;51.078;12.108;2023-04-08T09:03:18;0.90;;;0.57;;
35699;SDS011;21818;51.078;12.108;2023-04-08T09:06:00;1.40;;;0.60;;
35699;SDS011;21818;51.078;12.108;2023-04-08T09:08:31;1.48;;;0.65;;
35699;SDS011;21818;51.078;12.108;2023-04-08T09:11:14;1.58;;;0.70;;
35699;SDS011;21818;51.078;12.108;2023-04-08T09:13:46;0.57;;;0.40;;
35699;SDS011;21818;51.078;12.108;2023-04-08T09:16:12;1.08;;;0.55;;
35699;SDS011;21818;51.078;12.108;2023-04-08T09:18:40;3.53;;;0.70;;
35699;SDS011;21818;51.078;12.108;2023-04-08T09:21:10;1.52;;;0.60;;
35699;SDS011;21818;51.078;12.108;2023-04-08T09:23:43;1.30;;;0.57;;
35699;SDS011;21818;51.078;12.108;2023-04-08T09:26:14;1.15;;;0.60;;
35699;SDS011;21818;51.078;12.108;2023-04-08T09:29:02;0.55;;;0.47;;
35699;SDS011;21818;51.078;12.108;2023-04-08T09:31:30;1.02;;;0.60;;
35699;SDS011;21818;51.078;12.108;2023-04-08T09:33:57;1.23;;;0.57;;
35699;SDS011;21818;51.078;12.108;2023-04-08T09:36:34;1.42;;;0.77;;
35699;SDS011;21818;51.078;12.108;2023-04-08T09:39:00;2.78;;;1.52;;
35699;SDS011;21818;51.078;12.108;2023-04-08T09:41:26;1.35;;;0.70;;
35699;SDS011;21818;51.078;12.108;2023-04-08T09:43:53;1.13;;;0.70;;
35699;SDS011;21818;51.078;12.108;2023-04-08T09:46:26;1.20;;;0.75;;
35699;SDS011;21818;51.078;12.108;2023-04-08T09:49:09;1.52;;;0.60;;
35699;SDS011;21818;51.078;12.108;2023-04-08T09:51:48;1.98;;;0.60;;
35699;SDS011;21818;51.078;12.108;2023-04-08T09:54:22;2.15;;;0.95;;
35699;SDS011;21818;51.078;12.108;2023-04-08T09:57:00;2.10;;;0.88;;
35699;SDS011;21818;51.078;12.108;2023-04-08T09:59:29;1.65;;;0.70;;
35699;SDS011;21818;51.078;12.108;2023-04-08T10:01:58;1.92;;;0.70;;
35699;SDS011;21818;51.078;12.108;2023-04-08T10:04:28;0.73;;;0.50;;
35699;SDS011;21818;51.078;12.108;2023-04-08T10:06:56;1.27;;;0.55;;
35699;SDS011;21818;51.078;12.108;2023-04-08T10:09:26;1.00;;;0.60;;
35699;SDS011;21818;51.078;12.108;2023-04-08T10:11:53;0.70;;;0.50;;
35699;SDS011;21818;51.078;12.108;2023-04-08T10:14:19;1.20;;;0.60;;
35699;SDS011;21818;51.078;12.108;2023-04-08T10:16:46;3.15;;;1.25;;
35699;SDS011;21818;51.078;12.108;2023-04-08T10:27:42;1.45;;;0.77;;
35699;SDS011;21818;51.078;12.108;2023-04-08T10:32:56;0.88;;;0.60;;
35699;SDS011;21818;51.078;12.108;2023-04-08T10:35:29;3.53;;;2.08;;
35699;SDS011;21818;51.078;12.108;2023-04-08T10:37:55;3.00;;;0.70;;
35699;SDS011;21818;51.078;12.108;2023-04-08T10:40:22;1.67;;;0.90;;
35699;SDS011;21818;51.078;12.108;2023-04-08T10:42:57;1.00;;;0.70;;
35699;SDS011;21818;51.078;12.108;2023-04-08T10:45:23;0.77;;;0.50;;
35699;SDS011;21818;51.078;12.108;2023-04-08T10:47:49;1.05;;;0.68;;
35699;SDS011;21818;51.078;12.108;2023-04-08T10:50:16;2.30;;;1.27;;
35699;SDS011;21818;51.078;12.108;2023-04-08T10:52:46;1.27;;;0.88;;
35699;SDS011;21818;51.078;12.108;2023-04-08T10:55:25;1.38;;;0.80;;
35699;SDS011;21818;51.078;12.108;2023-04-08T10:57:51;1.73;;;0.70;;
35699;SDS011;21818;51.078;12.108;2023-04-08T11:00:17;2.20;;;1.40;;
35699;SDS011;21818;51.078;12.108;2023-04-08T11:02:44;1.63;;;0.90;;
35699;SDS011;21818;51.078;12.108;2023-04-08T11:05:10;2.10;;;1.40;;
35699;SDS011;21818;51.078;12.108;2023-04-08T11:07:39;1.73;;;1.30;;
35699;SDS011;21818;51.078;12.108;2023-04-08T11:10:05;1.50;;;0.90;;
35699;SDS011;21818;51.078;12.108;2023-04-08T11:12:32;1.67;;;0.80;;
35699;SDS011;21818;51.078;12.108;2023-04-08T11:15:00;3.58;;;1.10;;
35699;SDS011;21818;51.078;12.108;2023-04-08T11:17:27;1.92;;;1.08;;
35699;SDS011;21818;51.078;12.108;2023-04-08T11:19:52;2.40;;;1.40;;
35699;SDS011;21818;51.078;12.108;2023-04-08T11:22:19;1.77;;;1.10;;
35699;SDS011;21818;51.078;12.108;2023-04-08T11:24:44;4.88;;;2.75;;
35699;SDS011;21818;51.078;12.108;2023-04-08T11:27:11;5.70;;;3.40;;
35699;SDS011;21818;51.078;12.108;2023-04-08T11:29:36;2.70;;;1.90;;
35699;SDS011;21818;51.078;12.108;2023-04-08T11:32:02;2.95;;;1.77;;
35699;SDS011;21818;51.078;12.108;2023-04-08T11:34:28;4.63;;;2.53;;
35699;SDS011;21818;51.078;12.108;2023-04-08T11:36:55;4.13;;;1.95;;
35699;SDS011;21818;51.078;12.108;2023-04-08T11:39:22;3.22;;;1.65;;
35699;SDS011;21818;51.078;12.108;2023-04-08T11:41:48;2.63;;;1.70;;
35699;SDS011;21818;51.078;12.108;2023-04-08T11:44:14;3.72;;;1.88;;
35699;SDS011;21818;51.078;12.108;2023-04-08T11:46:40;3.35;;;2.25;;
35699;SDS011;21818;51.078;12.108;2023-04-08T11:49:15;3.38;;;1.70;;
35699;SDS011;21818;51.078;12.108;2023-04-08T11:51:57;3.00;;;1.88;;
35699;SDS011;21818;51.078;12.108;2023-04-08T11:54:30;1.65;;;1.20;;
35699;SDS011;21818;51.078;12.108;2023-04-08T11:56:57;2.08;;;1.10;;
35699;SDS011;21818;51.078;12.108;2023-04-08T11:59:23;1.70;;;1.02;;
35699;SDS011;21818;51.078;12.108;2023-04-08T12:01:52;3.22;;;1.25;;
35699;SDS011;21818;51.078;12.108;2023-04-08T12:04:18;2.47;;;1.33;;
35699;SDS011;21818;51.078;12.108;2023-04-08T12:06:44;2.58;;;1.48;;
35699;SDS011;21818;51.078;12.108;2023-04-08T12:09:11;1.90;;;1.15;;
35699;SDS011;21818;51.078;12.108;2023-04-08T12:11:37;1.63;;;1.08;;
35699;SDS011;21818;51.078;12.108;2023-04-08T12:14:03;1.58;;;1.10;;
35699;SDS011;21818;51.078;12.108;2023-04-08T12:16:28;1.15;;;0.75;;
35699;SDS011;21818;51.078;12.108;2023-04-08T12:18:54;1.50;;;0.98;;
35699;SDS011;21818;51.078;12.108;2023-04-08T12:21:19;1.58;;;1.10;;
35699;SDS011;21818;51.078;12.108;2023-04-08T12:23:45;1.15;;;0.70;;
35699;SDS011;21818;51.078;12.108;2023-04-08T12:26:10;2.22;;;0.90;;
35699;SDS011;21818;51.078;12.108;2023-04-08T12:28:37;2.30;;;1.10;;
35699;SDS011;21818;51.078;12.108;2023-04-08T12:31:03;1.95;;;1.10;;
35699;SDS011;21818;51.078;12.108;2023-04-08T12:33:28;1.48;;;1.20;;
35699;SDS011;21818;51.078;12.108;2023-04-08T12:35:54;4.28;;;1.00;;
35699;SDS011;21818;51.078;12.108;2023-04-08T12:38:22;2.05;;;1.48;;
35699;SDS011;21818;51.078;12.108;2023-04-08T12:40:47;2.22;;;1.60;;
35699;SDS011;21818;51.078;12.108;2023-04-08T12:43:13;2.25;;;1.40;;
35699;SDS011;21818;51.078;12.108;2023-04-08T12:45:38;3.22;;;1.35;;
35699;SDS011;21818;51.078;12.108;2023-04-08T12:48:04;2.20;;;1.20;;
35699;SDS011;21818;51.078;12.108;2023-04-08T12:50:29;2.17;;;1.20;;
35699;SDS011;21818;51.078;12.108;2023-04-08T12:52:55;2.42;;;1.35;;
35699;SDS011;21818;51.078;12.108;2023-04-08T12:55:20;1.67;;;1.08;;
35699;SDS011;21818;51.078;12.108;2023-04-08T12:57:49;2.38;;;1.00;;
35699;SDS011;21818;51.078;12.108;2023-04-08T13:00:15;2.03;;;1.00;;
35699;SDS011;21818;51.078;12.108;2023-04-08T13:02:41;1.70;;;1.00;;
35699;SDS011;21818;51.078;12.108;2023-04-08T13:05:08;1.77;;;1.08;;
35699;SDS011;21818;51.078;12.108;2023-04-08T13:07:34;2.15;;;1.10;;
35699;SDS011;21818;51.078;12.108;2023-04-08T13:09:59;2.35;;;1.20;;
35699;SDS011;21818;51.078;12.108;2023-04-08T13:12:25;1.80;;;1.17;;
35699;SDS011;21818;51.078;12.108;2023-04-08T13:14:51;2.47;;;1.45;;
35699;SDS011;21818;51.078;12.108;2023-04-08T13:17:16;4.25;;;1.52;;
35699;SDS011;21818;51.078;12.108;2023-04-08T13:19:42;2.45;;;1.30;;
35699;SDS011;21818;51.078;12.108;2023-04-08T13:22:08;2.75;;;1.30;;
35699;SDS011;21818;51.078;12.108;2023-04-08T13:24:33;3.72;;;1.90;;
35699;SDS011;21818;51.078;12.108;2023-04-08T13:26:59;1.55;;;0.90;;
35699;SDS011;21818;51.078;12.108;2023-04-08T13:29:25;1.67;;;1.10;;
35699;SDS011;21818;51.078;12.108;2023-04-08T13:31:52;2.00;;;1.00;;
35699;SDS011;21818;51.078;12.108;2023-04-08T13:34:17;1.95;;;1.13;;
35699;SDS011;21818;51.078;12.108;2023-04-08T13:36:43;1.80;;;1.00;;
35699;SDS011;21818;51.078;12.108;2023-04-08T13:39:09;1.88;;;1.15;;
35699;SDS011;21818;51.078;12.108;2023-04-08T13:41:34;1.48;;;0.88;;
35699;SDS011;21818;51.078;12.108;2023-04-08T13:44:00;1.48;;;1.00;;
35699;SDS011;21818;51.078;12.108;2023-04-08T13:46:25;1.90;;;1.02;;
35699;SDS011;21818;51.078;12.108;2023-04-08T13:48:51;1.42;;;0.70;;
35699;SDS011;21818;51.078;12.108;2023-04-08T13:51:17;1.25;;;0.88;;
35699;SDS011;21818;51.078;12.108;2023-04-08T13:53:42;1.65;;;0.98;;
35699;SDS011;21818;51.078;12.108;2023-04-08T13:56:08;1.45;;;1.05;;
35699;SDS011;21818;51.078;12.108;2023-04-08T13:58:33;1.65;;;1.00;;
35699;SDS011;21818;51.078;12.108;2023-04-08T14:00:59;2.60;;;1.20;;
35699;SDS011;21818;51.078;12.108;2023-04-08T14:03:24;1.10;;;0.70;;
35699;SDS011;21818;51.078;12.108;2023-04-08T14:05:50;3.17;;;1.17;;
35699;SDS011;21818;51.078;12.108;2023-04-08T14:08:16;2.30;;;1.40;;
35699;SDS011;21818;51.078;12.108;2023-04-08T14:10:48;3.72;;;2.42;;
35699;SDS011;21818;51.078;12.108;2023-04-08T14:13:15;1.50;;;1.00;;
35699;SDS011;21818;51.078;12.108;2023-04-08T14:15:41;1.98;;;1.00;;
35699;SDS011;21818;51.078;12.108;2023-04-08T14:18:06;1.52;;;0.98;;
35699;SDS011;21818;51.078;12.108;2023-04-08T14:20:32;2.25;;;1.25;;
35699;SDS011;21818;51.078;12.108;2023-04-08T14:22:59;1.65;;;1.17;;
35699;SDS011;21818;51.078;12.108;2023-04-08T14:25:25;3.00;;;1.92;;
35699;SDS011;21818;51.078;12.108;2023-04-08T14:27:51;2.50;;;1.50;;
35699;SDS011;21818;51.078;12.108;2023-04-08T14:30:17;1.83;;;1.00;;
35699;SDS011;21818;51.078;12.108;2023-04-08T14:32:42;2.60;;;1.65;;
35699;SDS011;21818;51.078;12.108;2023-04-08T14:35:08;1.10;;;0.80;;
35699;SDS011;21818;51.078;12.108;2023-04-08T14:37:34;1.38;;;0.90;;
35699;SDS011;21818;51.078;12.108;2023-04-08T14:40:02;2.15;;;0.95;;
35699;SDS011;21818;51.078;12.108;2023-04-08T14:42:28;1.40;;;0.90;;
35699;SDS011;21818;51.078;12.108;2023-04-08T14:44:54;1.00;;;0.77;;
35699;SDS011;21818;51.078;12.108;2023-04-08T14:47:21;1.90;;;1.17;;